Time;durP1;ratioP1;P1;durP2;ratioP2;P2;SDS_P1;SDS_P2;PMS_P1;PMS_P2;Temp;Humidity;BMP_temperature;BMP_pressure;BME280_temperature;BME280_humidity;BME280_pressure;Samples;Min_cycle;Max_cycle;Signal;HPM_P1;HPM_P2
2022/06/23 00:01:26;;;;;;;;;24.00;22.00;;;;;23.97;44.85;100523.44;5021942;28;46329;-53
2022/06/23 00:03:55;;;;;;;;;26.50;26.50;;;;;23.92;45.00;100514.88;5021732;28;45225;-55
2022/06/23 00:06:36;;;;;;;;;28.25;24.75;;;;;23.91;44.72;100509.59;5021024;28;45499;-54
2022/06/23 00:09:34;;;;;;;;;22.50;21.75;;;;;23.89;45.27;100511.56;5010243;28;45255;-50
2022/06/23 00:12:26;;;;;;;;;29.75;27.25;;;;;23.86;45.36;100509.94;5021877;28;46209;-51
2022/06/23 00:15:00;;;;;;;;;25.00;24.00;;;;;23.83;45.37;100505.66;5016886;28;45343;-53
2022/06/23 00:17:42;;;;;;;;;27.75;25.25;;;;;23.82;45.45;100508.47;5021857;28;45257;-51
2022/06/23 00:20:32;;;;;;;;;24.75;23.75;;;;;23.78;45.79;100505.13;5021680;28;45263;-52
2022/06/23 00:23:04;;;;;;;;;27.00;24.00;;;;;23.78;45.69;100515.03;5021742;28;45457;-51
2022/06/23 00:25:29;;;;;;;;;23.25;20.00;;;;;23.74;45.68;100509.03;5021793;28;45360;-53
2022/06/23 00:27:55;;;;;;;;;26.50;25.75;;;;;23.72;46.04;100507.44;5021629;28;45343;-53
2022/06/23 00:30:25;;;;;;;;;24.25;23.50;;;;;23.68;45.69;100502.31;5021776;28;45273;-51
2022/06/23 00:32:51;;;;;;;;;29.25;28.25;;;;;23.68;45.63;100507.66;5021343;28;45350;-53
2022/06/23 00:35:18;;;;;;;;;32.00;28.25;;;;;23.66;46.19;100506.03;5020309;28;45372;-50
2022/06/23 00:37:49;;;;;;;;;25.25;25.25;;;;;23.61;46.11;100498.34;5021422;28;45462;-50
2022/06/23 00:40:19;;;;;;;;;26.75;26.75;;;;;23.60;46.20;100507.34;5021431;28;45582;-49
2022/06/23 00:43:03;;;;;;;;;27.00;24.00;;;;;23.59;46.38;100497.59;5021161;28;45580;-49
2022/06/23 00:45:40;;;;;;;;;26.00;24.75;;;;;23.56;46.42;100500.50;5021554;28;45442;-52
2022/06/23 00:48:30;;;;;;;;;29.50;27.25;;;;;23.56;46.47;100494.28;5021453;28;45293;-52
2022/06/23 00:51:29;;;;;;;;;26.50;25.75;;;;;23.54;46.80;100491.72;5021058;28;45555;-51
2022/06/23 00:54:04;;;;;;;;;30.50;29.50;;;;;23.51;46.78;100491.94;5021165;28;46314;-49
2022/06/23 00:56:40;;;;;;;;;31.00;27.75;;;;;23.49;46.78;100493.88;5021352;28;45287;-53
2022/06/23 00:59:17;;;;;;;;;29.00;26.00;;;;;23.47;46.73;100491.31;5021258;28;45295;-51
2022/06/23 01:01:54;;;;;;;;;27.25;26.75;;;;;23.44;46.93;100485.31;5021139;28;45228;-50
2022/06/23 01:04:35;;;;;;;;;26.25;25.00;;;;;23.42;46.85;100490.78;5021206;28;45288;-50
2022/06/23 01:07:25;;;;;;;;;28.25;28.25;;;;;23.40;46.79;100482.00;5018818;28;45360;-53
2022/06/23 01:10:23;;;;;;;;;30.25;27.25;;;;;23.37;47.03;100488.44;5014564;28;45431;-49
2022/06/23 01:12:48;;;;;;;;;30.75;29.50;;;;;23.36;46.95;100483.19;5020702;28;45481;-50
2022/06/23 01:15:37;;;;;;;;;27.00;25.75;;;;;23.31;47.31;100475.47;5020878;28;45267;-51
2022/06/23 01:18:17;;;;;;;;;25.75;25.50;;;;;23.32;47.32;100479.88;5035888;28;45285;-53
2022/06/23 01:20:53;;;;;;;;;25.75;25.75;;;;;23.31;47.46;100485.34;5020858;28;45359;-50
2022/06/23 01:23:35;;;;;;;;;30.25;28.25;;;;;23.28;47.56;100475.72;5020745;28;45419;-53
2022/06/23 01:26:06;;;;;;;;;33.00;26.75;;;;;23.27;47.73;100476.66;5036249;28;47277;-52
2022/06/23 01:28:38;;;;;;;;;25.25;24.50;;;;;23.26;47.80;100469.59;5020812;28;45321;-53
2022/06/23 01:31:08;;;;;;;;;27.00;27.00;;;;;23.24;47.40;100482.22;5020536;28;45396;-53
2022/06/23 01:33:42;;;;;;;;;33.25;29.25;;;;;23.25;47.44;100485.78;5020783;28;45462;-53
2022/06/23 01:36:25;;;;;;;;;28.50;27.50;;;;;23.24;47.59;100486.75;5020327;28;45289;-52
2022/06/23 01:38:58;;;;;;;;;26.75;26.75;;;;;23.22;47.39;100486.88;5020549;28;45482;-53
2022/06/23 01:41:43;;;;;;;;;25.75;25.00;;;;;23.22;47.81;100481.50;5020588;28;45339;-53
2022/06/23 01:44:40;;;;;;;;;28.75;26.75;;;;;23.20;47.53;100486.09;5020331;28;45328;-51
2022/06/23 01:47:37;;;;;;;;;29.25;28.50;;;;;23.17;48.14;100476.47;5019037;28;47178;-53
2022/06/23 01:50:14;;;;;;;;;28.25;27.50;;;;;23.15;47.91;100483.75;5020656;28;45251;-52
2022/06/23 01:52:45;;;;;;;;;30.00;27.00;;;;;23.14;48.26;100482.00;5020161;28;45578;-53
2022/06/23 01:55:50;;;;;;;;;30.75;30.00;;;;;23.13;47.92;100488.34;5020478;28;45485;-51
2022/06/23 01:58:21;;;;;;;;;30.50;30.25;;;;;23.11;48.38;100484.06;5020355;28;46287;-53
2022/06/23 02:00:49;;;;;;;;;31.25;30.00;;;;;23.10;48.36;100477.81;5019926;28;45351;-50
2022/06/23 02:03:28;;;;;;;;;27.25;25.00;;;;;23.08;48.24;100478.91;5020320;28;45319;-53
2022/06/23 02:06:15;;;;;;;;;29.00;27.00;;;;;23.05;48.37;100478.13;5020143;28;45312;-51
2022/06/23 02:08:56;;;;;;;;;23.00;22.25;;;;;23.04;48.73;100486.28;5008387;28;46209;-50
2022/06/23 02:11:33;;;;;;;;;29.25;26.25;;;;;23.03;48.62;100482.78;5020184;28;45374;-53
2022/06/23 02:14:13;;;;;;;;;21.00;20.50;;;;;22.99;48.94;100488.44;5020352;28;45227;-52
2022/06/23 02:17:11;;;;;;;;;16.50;14.50;;;;;22.96;48.77;100483.31;5019867;28;45410;-48
2022/06/23 02:19:52;;;;;;;;;12.50;12.50;;;;;22.86;49.19;100483.94;5019839;28;45225;-51
2022/06/23 02:22:26;;;;;;;;;10.25;9.00;;;;;22.84;50.04;100487.69;5018574;28;45391;-53
2022/06/23 02:24:59;;;;;;;;;6.75;6.75;;;;;22.75;49.60;100486.53;5019520;28;45443;-53
2022/06/23 02:27:32;;;;;;;;;6.50;6.50;;;;;22.69;50.04;100482.47;5019930;28;45240;-52
2022/06/23 02:30:06;;;;;;;;;9.50;7.00;;;;;22.65;49.91;100483.63;5018947;28;46120;-51
2022/06/23 02:32:52;;;;;;;;;7.00;6.00;;;;;22.58;49.93;100492.19;5019596;28;45221;-50
2022/06/23 02:35:26;;;;;;;;;6.00;6.00;;;;;22.52;50.30;100485.44;5009371;28;45403;-50
2022/06/23 02:38:03;;;;;;;;;6.50;5.25;;;;;22.50;50.61;100492.72;5019790;28;45174;-53
2022/06/23 02:40:38;;;;;;;;;6.00;6.00;;;;;22.47;50.54;100485.75;5019569;28;46393;-53
2022/06/23 02:43:29;;;;;;;;;8.25;7.25;;;;;22.42;50.82;100484.38;5017415;28;45316;-51
2022/06/23 02:46:07;;;;;;;;;6.00;6.00;;;;;22.36;50.59;100481.13;4999108;28;45439;-53
2022/06/23 02:48:53;;;;;;;;;7.50;5.50;;;;;22.31;50.81;100483.22;5018980;28;45261;-53
2022/06/23 02:51:36;;;;;;;;;5.25;5.25;;;;;22.22;50.81;100490.03;5019222;28;46180;-53
2022/06/23 02:54:20;;;;;;;;;6.75;5.00;;;;;22.20;50.65;100485.75;5018270;28;45297;-51
2022/06/23 02:57:07;;;;;;;;;5.75;4.25;;;;;22.14;50.89;100481.69;5019656;28;45185;-50
2022/06/23 02:59:39;;;;;;;;;7.00;5.00;;;;;22.07;50.81;100486.59;5019524;28;45223;-53
2022/06/23 03:02:30;;;;;;;;;9.50;7.00;;;;;22.03;50.54;100493.09;5019141;28;46250;-51
2022/06/23 03:05:25;;;;;;;;;4.50;4.50;;;;;21.98;51.17;100489.88;5019343;28;45444;-52
2022/06/23 03:08:11;;;;;;;;;8.25;5.50;;;;;21.95;51.22;100492.75;5010831;28;45420;-48
2022/06/23 03:10:39;;;;;;;;;4.50;4.00;;;;;21.92;51.16;100491.16;5006102;28;45337;-52
2022/06/23 03:13:28;;;;;;;;;4.50;4.50;;;;;21.91;51.22;100497.47;5034093;28;46323;-52
2022/06/23 03:16:10;;;;;;;;;6.00;4.25;;;;;21.82;51.54;100502.53;5019339;28;45292;-52
2022/06/23 03:19:18;;;;;;;;;4.00;3.75;;;;;21.79;51.71;100503.59;5034638;28;45270;-51
2022/06/23 03:21:46;;;;;;;;;6.00;4.00;;;;;21.75;51.68;100508.28;5018611;28;45470;-50
2022/06/23 03:24:52;;;;;;;;;4.00;3.50;;;;;21.72;51.14;100500.47;5019076;28;46292;-50
2022/06/23 03:27:30;;;;;;;;;4.50;4.50;;;;;21.68;51.75;100498.94;5019352;28;45430;-52
2022/06/23 03:30:02;;;;;;;;;5.00;4.00;;;;;21.66;51.16;100500.88;5019263;28;45389;-52
2022/06/23 03:32:34;;;;;;;;;4.50;4.50;;;;;21.62;51.93;100510.03;5018920;28;45249;-51
2022/06/23 03:35:21;;;;;;;;;4.25;3.75;;;;;21.63;51.17;100516.25;5006354;28;45589;-51
2022/06/23 03:37:46;;;;;;;;;6.00;4.00;;;;;21.61;51.53;100518.16;5019033;28;45275;-51
2022/06/23 03:43:31;;;;;;;;;4.00;4.00;;;;;21.54;51.34;100525.69;5010446;28;45418;-51
2022/06/23 03:46:02;;;;;;;;;3.25;2.50;;;;;21.50;51.41;100525.03;5022168;28;46211;-53
2022/06/23 03:48:33;;;;;;;;;5.75;5.00;;;;;21.52;51.84;100528.47;5022429;28;45328;-51
2022/06/23 03:51:25;;;;;;;;;7.00;4.00;;;;;21.48;51.58;100534.09;5022095;28;45176;-52
2022/06/23 03:54:02;;;;;;;;;5.00;4.00;;;;;21.48;51.88;100536.75;5022165;28;45536;-52
2022/06/23 03:56:33;;;;;;;;;5.25;3.00;;;;;21.44;52.16;100538.78;5022295;28;45307;-53
2022/06/23 03:59:01;;;;;;;;;5.00;4.50;;;;;21.46;51.98;100544.88;5022238;28;45355;-50
2022/06/23 04:01:40;;;;;;;;;2.00;1.00;;;;;21.47;51.90;100545.72;5022301;28;45440;-53
2022/06/23 04:04:22;;;;;;;;;4.75;4.75;;;;;21.43;51.78;100545.06;5021929;28;45560;-52
2022/06/23 04:06:51;;;;;;;;;5.50;3.25;;;;;21.39;51.81;100556.91;5021550;28;47285;-53
2022/06/23 04:09:28;;;;;;;;;5.00;3.50;;;;;21.39;52.46;100548.91;5011065;28;45382;-51
2022/06/23 04:12:00;;;;;;;;;7.25;4.50;;;;;21.39;52.43;100554.25;5037543;28;45256;-49
2022/06/23 04:14:53;;;;;;;;;4.50;4.25;;;;;21.36;51.88;100555.28;5022049;28;45557;-52
2022/06/23 04:17:44;;;;;;;;;4.75;4.75;;;;;21.36;52.59;100560.63;5021758;28;45237;-51
2022/06/23 04:20:22;;;;;;;;;6.75;5.50;;;;;21.34;52.17;100551.84;5021802;28;45314;-51
2022/06/23 04:23:04;;;;;;;;;5.00;4.50;;;;;21.35;52.49;100558.91;5022037;28;45398;-51
2022/06/23 04:26:03;;;;;;;;;6.50;5.00;;;;;21.34;52.61;100557.19;5021728;28;45444;-51
2022/06/23 04:28:35;;;;;;;;;5.50;4.00;;;;;21.33;52.23;100560.81;5036846;28;48242;-50
2022/06/23 04:31:04;;;;;;;;;3.75;3.00;;;;;21.27;52.43;100553.22;5021463;28;45268;-51
2022/06/23 04:33:34;;;;;;;;;5.50;3.50;;;;;21.29;52.80;100551.28;5021735;28;45430;-51
2022/06/23 04:36:00;;;;;;;;;3.50;3.50;;;;;21.29;52.24;100561.97;5021380;28;45328;-51
2022/06/23 04:38:36;;;;;;;;;6.50;5.00;;;;;21.24;52.51;100562.28;5021523;28;46263;-48
2022/06/23 04:41:01;;;;;;;;;5.00;4.00;;;;;21.22;52.52;100560.63;5021575;28;45171;-52
2022/06/23 04:43:38;;;;;;;;;4.00;3.25;;;;;21.23;52.55;100559.66;5021937;28;45272;-50
2022/06/23 04:46:12;;;;;;;;;4.00;4.00;;;;;21.21;53.28;100562.44;5021429;28;45210;-47
2022/06/23 04:48:53;;;;;;;;;6.25;4.75;;;;;21.22;52.55;100569.50;5020121;28;45449;-49
2022/06/23 04:51:35;;;;;;;;;4.75;4.75;;;;;21.22;52.52;100569.50;5036355;28;46364;-51
2022/06/23 04:54:10;;;;;;;;;8.00;4.25;;;;;21.23;52.63;100570.34;5020774;28;45245;-50
2022/06/23 04:56:38;;;;;;;;;6.00;5.00;;;;;21.22;52.44;100568.63;5021441;28;45243;-52
2022/06/23 04:59:29;;;;;;;;;5.00;4.25;;;;;21.24;52.55;100572.09;5020983;28;45404;-51
2022/06/23 05:01:58;;;;;;;;;4.25;4.25;;;;;21.25;52.59;100573.81;5016005;28;45220;-49
2022/06/23 05:04:29;;;;;;;;;12.00;10.50;;;;;21.29;52.63;100574.47;5021268;28;45336;-51
2022/06/23 05:06:58;;;;;;;;;7.50;6.25;;;;;21.24;52.85;100567.63;5018477;28;45470;-47
2022/06/23 05:09:37;;;;;;;;;6.50;6.50;;;;;21.28;52.37;100578.94;5010498;28;45486;-49
2022/06/23 05:12:31;;;;;;;;;5.25;3.75;;;;;21.27;53.21;100580.78;5021028;28;45237;-48
2022/06/23 05:15:10;;;;;;;;;5.00;4.75;;;;;21.26;53.04;100578.19;5021143;28;45178;-46
2022/06/23 05:17:43;;;;;;;;;6.25;6.25;;;;;21.24;53.06;100577.44;5036272;28;45397;-52
2022/06/23 05:20:20;;;;;;;;;6.25;5.00;;;;;21.25;53.05;100589.84;5019441;28;47401;-49
2022/06/23 05:22:48;;;;;;;;;3.00;3.00;;;;;21.25;53.16;100589.84;5020725;28;45412;-51
2022/06/23 05:25:16;;;;;;;;;5.25;5.00;;;;;21.24;53.23;100588.13;5020859;28;45339;-51
2022/06/23 05:27:45;;;;;;;;;5.75;5.50;;;;;21.21;53.65;100578.47;5035550;28;45561;-51
2022/06/23 05:30:19;;;;;;;;;6.00;4.75;;;;;21.21;53.21;100580.31;5021104;28;45499;-51
2022/06/23 05:32:52;;;;;;;;;6.00;4.75;;;;;21.22;52.95;100582.88;5020321;28;45248;-51
2022/06/23 05:35:21;;;;;;;;;6.50;5.50;;;;;21.26;53.30;100588.88;5035850;28;45333;-51
2022/06/23 05:38:03;;;;;;;;;7.00;5.75;;;;;21.25;53.16;100581.81;5020621;28;45519;-49
2022/06/23 05:40:38;;;;;;;;;5.75;5.75;;;;;21.28;53.22;100578.94;5019341;28;46151;-49
2022/06/23 05:43:03;;;;;;;;;7.00;7.00;;;;;21.28;52.67;100584.28;5020510;28;45248;-50
2022/06/23 05:45:38;;;;;;;;;5.75;4.25;;;;;21.31;52.78;100575.22;5035886;28;45369;-50
2022/06/23 05:48:07;;;;;;;;;4.50;3.50;;;;;21.27;52.21;100577.25;5020518;28;45175;-51
2022/06/23 05:50:45;;;;;;;;;5.00;4.75;;;;;21.29;52.48;100569.97;5020010;28;47006;-49
2022/06/23 05:53:20;;;;;;;;;7.25;7.25;;;;;21.31;52.55;100559.19;5020347;28;45432;-51
2022/06/23 05:55:55;;;;;;;;;6.00;5.50;;;;;21.29;52.28;100564.63;5020565;28;45261;-49
2022/06/23 05:58:41;;;;;;;;;7.25;7.25;;;;;21.22;51.93;100576.66;5020436;28;45283;-51
2022/06/23 06:01:13;;;;;;;;;6.25;6.00;;;;;21.21;52.69;100581.16;5020233;28;46332;-51
2022/06/23 06:04:04;;;;;;;;;8.75;8.00;;;;;21.16;51.90;100575.22;5035532;28;45376;-51
2022/06/23 06:06:31;;;;;;;;;7.00;5.00;;;;;21.14;52.19;100578.94;5017457;28;45465;-52
2022/06/23 06:11:50;;;;;;;;;10.00;7.25;;;;;21.11;52.14;100578.19;5020114;28;45387;-50
2022/06/23 06:14:19;;;;;;;;;6.50;5.50;;;;;21.15;52.32;100580.69;5020071;28;45303;-50
2022/06/23 06:16:45;;;;;;;;;8.50;8.50;;;;;21.17;52.97;100576.97;5018680;28;45461;-52
2022/06/23 06:19:16;;;;;;;;;9.00;8.00;;;;;21.11;52.86;100575.50;5020024;28;45351;-50
2022/06/23 06:21:41;;;;;;;;;10.75;8.00;;;;;21.11;52.63;100567.50;5019749;28;45360;-52
2022/06/23 06:24:18;;;;;;;;;11.00;9.25;;;;;21.11;52.06;100572.00;5019996;28;45409;-51
2022/06/23 06:26:47;;;;;;;;;9.75;8.75;;;;;21.08;52.12;100577.50;5020137;28;45402;-52
2022/06/23 06:29:31;;;;;;;;;7.00;7.00;;;;;21.03;51.69;100572.47;5019933;28;45455;-50
2022/06/23 06:32:04;;;;;;;;;9.50;9.50;;;;;20.99;52.40;100594.94;5019716;28;46234;-52
2022/06/23 06:34:41;;;;;;;;;8.00;7.00;;;;;20.96;52.51;100570.25;5019686;28;45347;-51
2022/06/23 06:37:12;;;;;;;;;10.25;10.25;;;;;20.94;51.98;100564.97;5019733;28;45262;-52
2022/06/23 06:39:43;;;;;;;;;7.25;7.25;;;;;20.90;52.58;100560.78;5019759;28;45290;-50
2022/06/23 06:42:14;;;;;;;;;8.50;8.50;;;;;20.89;52.19;100567.97;5019644;28;45280;-50
2022/06/23 06:44:43;;;;;;;;;11.25;9.50;;;;;20.88;52.41;100574.25;5019582;28;45422;-50
2022/06/23 06:47:21;;;;;;;;;7.75;7.75;;;;;20.90;52.96;100572.31;5019671;28;45182;-52
2022/06/23 06:49:47;;;;;;;;;10.00;8.00;;;;;20.85;52.66;100584.25;5018474;28;45476;-51
2022/06/23 06:52:14;;;;;;;;;6.25;6.25;;;;;20.83;52.61;100576.34;5019234;28;45335;-51
2022/06/23 06:54:44;;;;;;;;;7.25;7.25;;;;;20.89;52.86;100575.09;5019756;28;45340;-50
2022/06/23 06:57:16;;;;;;;;;9.00;8.75;;;;;20.87;52.33;100591.22;5019820;28;45208;-47
2022/06/23 06:59:56;;;;;;;;;7.50;7.00;;;;;20.89;52.17;100573.28;5019724;28;45260;-49
2022/06/23 07:02:28;;;;;;;;;5.25;5.25;;;;;20.90;52.51;100574.16;5019037;28;46278;-50
2022/06/23 07:05:24;;;;;;;;;6.50;6.50;;;;;20.92;52.19;100580.25;5018339;28;45297;-54
2022/06/23 07:08:20;;;;;;;;;6.50;6.50;;;;;20.91;52.03;100592.75;5010845;28;45348;-49
2022/06/23 07:10:53;;;;;;;;;9.50;7.75;;;;;20.91;51.70;100595.41;5006540;28;45563;-50
2022/06/23 07:13:28;;;;;;;;;8.00;7.50;;;;;20.96;52.42;100594.28;5019128;28;46395;-50
2022/06/23 07:16:00;;;;;;;;;9.00;8.75;;;;;20.94;51.66;100587.22;5019887;28;45384;-51
2022/06/23 07:18:40;;;;;;;;;8.00;6.75;;;;;21.02;51.97;100594.78;5022702;28;45381;-52
2022/06/23 07:21:17;;;;;;;;;9.50;9.50;;;;;21.05;52.31;100586.56;5022552;28;45455;-49
2022/06/23 07:23:53;;;;;;;;;7.25;7.25;;;;;21.10;52.40;100592.47;5021410;28;46312;-51
2022/06/23 07:26:43;;;;;;;;;11.75;9.00;;;;;21.14;51.87;100597.66;5022523;28;45300;-49
2022/06/23 07:29:11;;;;;;;;;8.75;7.00;;;;;21.16;52.33;100590.41;5022654;28;45402;-52
2022/06/23 07:32:06;;;;;;;;;8.00;7.00;;;;;21.16;51.04;100611.78;5022393;28;45372;-50
2022/06/23 07:34:37;;;;;;;;;11.00;9.00;;;;;21.21;52.17;100593.66;5021768;28;45358;-49
2022/06/23 07:37:16;;;;;;;;;20.25;15.50;;;;;21.24;51.87;100601.47;5022184;28;45300;-51
2022/06/23 07:39:41;;;;;;;;;7.50;7.50;;;;;21.29;52.28;100609.22;5022410;28;45498;-52
2022/06/23 07:42:28;;;;;;;;;7.75;7.75;;;;;21.33;52.54;100610.75;5022363;28;45482;-51
2022/06/23 07:45:02;;;;;;;;;9.50;8.00;;;;;21.29;52.58;100610.06;5022477;28;45509;-50
2022/06/23 07:47:28;;;;;;;;;10.00;9.00;;;;;21.33;52.32;100602.72;5022078;28;45327;-52
2022/06/23 07:49:53;;;;;;;;;8.00;8.00;;;;;21.40;52.19;100604.06;5021256;28;45345;-50
2022/06/23 07:52:19;;;;;;;;;11.50;11.25;;;;;21.45;52.06;100607.31;5022031;28;45551;-50
2022/06/23 07:54:49;;;;;;;;;10.00;10.00;;;;;21.47;52.10;100602.75;5022318;28;47106;-49
2022/06/23 07:57:14;;;;;;;;;8.75;8.50;;;;;21.55;52.05;100600.47;5022116;28;45304;-51
2022/06/23 07:59:47;;;;;;;;;11.50;8.75;;;;;21.63;51.97;100599.97;5021102;28;45312;-52
2022/06/23 08:02:19;;;;;;;;;9.00;9.00;;;;;21.63;51.97;100593.78;5021923;28;45294;-52
2022/06/23 08:04:59;;;;;;;;;11.00;10.00;;;;;21.71;52.15;100599.50;5021692;28;45319;-51
2022/06/23 08:07:26;;;;;;;;;10.50;9.00;;;;;21.76;51.98;100597.41;5016533;28;45419;-52
2022/06/23 08:09:56;;;;;;;;;11.25;10.00;;;;;21.82;51.83;100596.16;5016289;28;45340;-52
2022/06/23 08:12:54;;;;;;;;;8.75;8.75;;;;;21.87;52.23;100605.59;5020765;28;45175;-49
2022/06/23 08:18:34;;;;;;;;;10.75;8.50;;;;;22.00;51.40;100604.78;5021757;28;45228;-52
2022/06/23 08:21:11;;;;;;;;;11.75;10.00;;;;;22.00;50.96;100592.28;5012560;28;45227;-51
2022/06/23 08:23:48;;;;;;;;;10.50;10.00;;;;;22.07;51.57;100593.63;5021964;28;45281;-53
2022/06/23 08:26:16;;;;;;;;;8.75;8.75;;;;;22.11;51.18;100588.06;5021518;28;46389;-52
2022/06/23 08:28:42;;;;;;;;;9.25;8.75;;;;;22.15;51.66;100585.09;5020741;28;45352;-52
2022/06/23 08:31:07;;;;;;;;;9.00;8.00;;;;;22.24;51.29;100591.66;5021655;28;45181;-49
2022/06/23 08:33:33;;;;;;;;;11.75;9.25;;;;;;;;5021629;28;45453;-51
2022/06/23 08:36:11;;;;;;;;;7.25;6.25;;;;;22.37;51.25;100597.09;5019675;28;46837;-48
2022/06/23 08:39:03;;;;;;;;;8.75;7.75;;;;;22.42;51.30;100599.47;5021616;28;45478;-50
2022/06/23 08:41:48;;;;;;;;;7.00;7.00;;;;;22.45;51.13;100596.56;5021803;28;45224;-49
2022/06/23 08:44:28;;;;;;;;;10.75;9.50;;;;;22.46;50.94;100587.59;5021466;28;45253;-51
2022/06/23 08:46:57;;;;;;;;;8.25;8.25;;;;;22.50;51.05;100587.28;5021358;28;45319;-50
2022/06/23 08:49:44;;;;;;;;;9.50;9.00;;;;;22.58;50.43;100593.94;5035676;28;45411;-52
2022/06/23 08:52:19;;;;;;;;;6.75;6.00;;;;;22.60;50.44;100592.88;5021141;28;45232;-49
2022/06/23 08:54:56;;;;;;;;;9.00;7.75;;;;;22.72;51.04;100600.06;5021375;28;45443;-48
2022/06/23 08:57:34;;;;;;;;;9.50;9.50;;;;;22.76;50.22;100600.72;5036568;28;47494;-52
2022/06/23 09:00:39;;;;;;;;;12.75;11.25;;;;;22.87;50.36;100597.34;5019934;28;45340;-48
2022/06/23 09:03:15;;;;;;;;;11.50;11.00;;;;;22.93;50.61;100601.41;4999314;28;45388;-53
2022/06/23 09:06:05;;;;;;;;;8.75;8.75;;;;;22.97;50.44;100593.06;5020895;28;45456;-50
2022/06/23 09:09:09;;;;;;;;;9.00;9.00;;;;;23.09;50.27;100598.53;5007510;28;48060;-51
2022/06/23 09:11:52;;;;;;;;;10.25;10.25;;;;;23.08;50.35;100604.84;4999141;28;45475;-51
2022/06/23 09:14:51;;;;;;;;;9.00;9.00;;;;;23.13;50.13;100595.53;5021329;28;45251;-50
2022/06/23 09:17:38;;;;;;;;;9.75;9.25;;;;;23.24;50.17;100594.81;5021035;28;45233;-49
2022/06/23 09:20:18;;;;;;;;;8.75;8.00;;;;;23.39;50.28;100582.16;5020703;28;45412;-52
2022/06/23 09:23:14;;;;;;;;;9.25;9.25;;;;;23.54;49.55;100593.63;5020882;28;45380;-52
2022/06/23 09:25:52;;;;;;;;;9.75;8.50;;;;;23.65;49.68;100592.84;5021070;28;45245;-49
2022/06/23 09:28:40;;;;;;;;;7.25;7.25;;;;;23.72;49.49;100593.25;5020743;28;45352;-50
2022/06/23 09:31:15;;;;;;;;;10.50;10.50;;;;;23.85;49.45;100578.84;5020590;28;46630;-51
2022/06/23 09:34:05;;;;;;;;;9.25;7.25;;;;;23.91;49.20;100591.00;5020721;28;45473;-49
2022/06/23 09:36:59;;;;;;;;;8.50;8.50;;;;;24.00;48.90;100584.94;5020566;28;45855;-51
2022/06/23 09:40:02;;;;;;;;;13.25;10.00;;;;;24.02;49.05;100582.16;5011211;28;45261;-52
2022/06/23 09:42:32;;;;;;;;;12.50;11.00;;;;;24.07;48.62;100581.81;5020246;28;47346;-52
2022/06/23 09:45:19;;;;;;;;;7.25;7.25;;;;;24.07;48.86;100592.56;5020620;28;45319;-52
2022/06/23 09:48:05;;;;;;;;;9.75;9.25;;;;;24.15;48.86;100590.16;5020511;28;45380;-50
2022/06/23 09:50:48;;;;;;;;;11.50;11.00;;;;;24.20;48.55;100590.69;5020074;28;45438;-52
2022/06/23 09:53:28;;;;;;;;;7.75;7.75;;;;;24.27;48.38;100588.41;5020351;28;47121;-52
2022/06/23 09:56:05;;;;;;;;;7.50;7.50;;;;;24.30;48.09;100590.84;5035584;28;45426;-49
2022/06/23 09:58:50;;;;;;;;;4.50;4.50;;;;;24.36;48.21;100585.00;5035943;28;45452;-52
2022/06/23 10:01:55;;;;;;;;;12.00;10.25;;;;;24.41;48.09;100585.53;5020275;28;45609;-51
2022/06/23 10:04:47;;;;;;;;;11.50;8.75;;;;;24.44;48.21;100595.16;5018445;28;45218;-51
2022/06/23 10:07:32;;;;;;;;;8.00;7.25;;;;;24.50;48.01;100586.66;5016435;28;45490;-52
2022/06/23 10:10:07;;;;;;;;;9.00;7.50;;;;;24.54;48.09;100587.28;5013017;28;45179;-51
2022/06/23 10:13:02;;;;;;;;;6.75;6.75;;;;;24.63;47.80;100583.91;5020253;28;45403;-50
2022/06/23 10:16:04;;;;;;;;;8.25;8.25;;;;;24.67;47.46;100578.22;5018692;28;46111;-52
2022/06/23 10:18:48;;;;;;;;;10.75;8.50;;;;;24.76;47.35;100573.13;5019871;28;45406;-49
2022/06/23 10:21:28;;;;;;;;;9.25;9.25;;;;;24.84;47.21;100578.75;5019749;28;45454;-52
2022/06/23 10:24:28;;;;;;;;;8.00;7.75;;;;;24.95;47.40;100578.75;5019823;28;45587;-48
2022/06/23 10:27:17;;;;;;;;;7.75;7.75;;;;;25.09;46.82;100575.03;5019746;28;46167;-50
2022/06/23 10:30:03;;;;;;;;;26.75;21.25;;;;;25.23;47.09;100578.44;5019714;28;45260;-51
2022/06/23 10:32:41;;;;;;;;;12.50;12.00;;;;;25.36;46.55;100575.63;5019693;28;45325;-47
2022/06/23 10:35:11;;;;;;;;;9.75;7.75;;;;;25.51;47.00;100574.47;5007476;28;45443;-52
2022/06/23 10:38:03;;;;;;;;;6.25;6.25;;;;;25.58;46.66;100570.28;5019699;28;45401;-50
2022/06/23 10:41:06;;;;;;;;;9.25;8.00;;;;;25.69;46.62;100582.03;5019734;28;45320;-51
2022/06/23 10:43:51;;;;;;;;;10.75;9.00;;;;;25.83;46.37;100583.59;5019866;28;45523;-49
2022/06/23 10:46:21;;;;;;;;;10.25;10.25;;;;;25.91;45.81;100573.94;5035055;28;45497;-52
2022/06/23 10:48:55;;;;;;;;;6.25;6.25;;;;;26.03;46.07;100568.53;5019352;28;45284;-51
2022/06/23 10:51:36;;;;;;;;;8.25;8.25;;;;;26.06;45.56;100573.66;5020660;28;45403;-52
2022/06/23 10:54:33;;;;;;;;;8.00;7.25;;;;;26.19;45.57;100573.50;5023221;28;45304;-50
2022/06/23 10:57:01;;;;;;;;;11.25;9.50;;;;;26.25;45.60;100567.59;5023128;28;45252;-52
2022/06/23 10:59:42;;;;;;;;;11.00;9.00;;;;;26.39;45.48;100574.53;5023043;28;47030;-52
2022/06/23 11:02:38;;;;;;;;;5.25;5.25;;;;;26.53;45.93;100574.25;5022850;28;45346;-51
2022/06/23 11:05:06;;;;;;;;;7.50;7.00;;;;;26.72;45.44;100570.00;5023005;28;45340;-51
2022/06/23 11:08:12;;;;;;;;;9.25;9.25;;;;;26.79;45.66;100571.19;5016922;28;45445;-52
2022/06/23 11:10:52;;;;;;;;;10.50;9.00;;;;;26.88;45.61;100564.16;5009719;28;47669;-51
2022/06/23 11:13:30;;;;;;;;;11.25;10.25;;;;;27.00;44.99;100564.94;5022800;28;45343;-53
2022/06/23 11:16:20;;;;;;;;;11.50;9.75;;;;;27.08;45.20;100559.72;5021699;28;45361;-51
2022/06/23 11:18:51;;;;;;;;;9.50;9.00;;;;;27.16;44.48;100564.47;5022999;28;45462;-50
2022/06/23 11:21:54;;;;;;;;;6.00;6.00;;;;;27.24;44.16;100554.72;5022285;28;46976;-52
2022/06/23 11:24:41;;;;;;;;;9.25;9.25;;;;;27.29;44.73;100548.06;5015986;28;45424;-50
2022/06/23 11:27:18;;;;;;;;;11.25;10.25;;;;;27.50;44.87;100562.38;5021389;28;45315;-51
2022/06/23 11:30:17;;;;;;;;;8.50;8.25;;;;;27.82;45.24;100553.22;5022372;28;45183;-50
2022/06/23 11:32:52;;;;;;;;;17.00;16.75;;;;;28.24;45.31;100557.59;5021822;28;46383;-53
2022/06/23 11:35:28;;;;;;;;;11.75;10.00;;;;;28.67;45.69;100548.22;5022359;28;45390;-50
2022/06/23 11:37:56;;;;;;;;;11.00;9.00;;;;;29.21;45.78;100534.13;5037719;28;45336;-53
2022/06/23 11:40:45;;;;;;;;;11.00;11.00;;;;;29.78;45.15;100535.88;5022440;28;45469;-52
2022/06/23 11:43:22;;;;;;;;;10.25;10.25;;;;;30.17;44.33;100545.59;5022334;28;47150;-52
2022/06/23 11:46:32;;;;;;;;;9.75;9.75;;;;;30.47;43.54;100536.22;5022155;28;45344;-53
2022/06/23 11:49:28;;;;;;;;;10.00;10.00;;;;;30.67;43.11;100536.03;4985346;28;45549;-52
2022/06/23 11:52:08;;;;;;;;;12.25;10.75;;;;;30.74;42.97;100532.56;5037313;28;45337;-51
2022/06/23 11:55:01;;;;;;;;;12.00;11.50;;;;;30.73;42.32;100533.56;5022270;28;45415;-53
2022/06/23 11:57:35;;;;;;;;;12.00;11.25;;;;;30.74;42.03;100516.28;5022158;28;45480;-51
2022/06/23 12:00:09;;;;;;;;;11.75;11.00;;;;;30.72;41.55;100522.88;5022420;28;45249;-51
2022/06/23 12:02:55;;;;;;;;;11.00;10.50;;;;;30.65;41.62;100519.94;5021887;28;45248;-53
2022/06/23 12:05:39;;;;;;;;;9.25;9.25;;;;;30.57;41.46;100519.91;5021698;28;45252;-53
2022/06/23 12:08:16;;;;;;;;;8.25;8.25;;;;;30.50;40.83;100516.09;5011085;28;45368;-52
2022/06/23 12:10:41;;;;;;;;;9.50;9.50;;;;;30.44;40.46;100510.28;5021953;28;45372;-53
2022/06/23 12:13:06;;;;;;;;;7.75;7.00;;;;;30.39;40.83;100501.78;5022066;28;45335;-51
2022/06/23 12:15:38;;;;;;;;;9.75;8.50;;;;;30.35;40.85;100499.53;5021925;28;46303;-53
2022/06/23 12:18:17;;;;;;;;;7.75;7.75;;;;;30.27;40.20;100497.59;5021924;28;45307;-53
2022/06/23 12:20:54;;;;;;;;;7.50;7.50;;;;;30.18;40.16;100490.44;5021814;28;45286;-53
2022/06/23 12:23:33;;;;;;;;;9.75;8.75;;;;;30.13;40.47;100491.72;5021707;28;45607;-52